sensor_id;sensor_type;location;lat;lon;timestamp;P1;durP1;ratioP1;P2;durP2;ratioP2
74059;SDS011;62414;53.436;8.828;2023-02-28T00:01:05;8.02;;;3.40;;
74059;SDS011;62414;53.436;8.828;2023-02-28T00:03:30;10.23;;;3.80;;
74059;SDS011;62414;53.436;8.828;2023-02-28T00:05:55;10.90;;;3.80;;
74059;SDS011;62414;53.436;8.828;2023-02-28T00:08:21;9.77;;;3.93;;
74059;SDS011;62414;53.436;8.828;2023-02-28T00:10:46;9.50;;;4.00;;
74059;SDS011;62414;53.436;8.828;2023-02-28T00:13:12;10.80;;;4.30;;
74059;SDS011;62414;53.436;8.828;2023-02-28T00:15:37;11.40;;;4.07;;
74059;SDS011;62414;53.436;8.828;2023-02-28T00:18:04;10.50;;;3.97;;
74059;SDS011;62414;53.436;8.828;2023-02-28T00:20:29;12.27;;;4.00;;
74059;SDS011;62414;53.436;8.828;2023-02-28T00:22:55;11.57;;;4.20;;
74059;SDS011;62414;53.436;8.828;2023-02-28T00:25:21;9.55;;;3.78;;
74059;SDS011;62414;53.436;8.828;2023-02-28T00:27:48;10.18;;;3.97;;
74059;SDS011;62414;53.436;8.828;2023-02-28T00:30:14;7.53;;;3.30;;
74059;SDS011;62414;53.436;8.828;2023-02-28T00:32:41;10.60;;;3.28;;
74059;SDS011;62414;53.436;8.828;2023-02-28T00:35:08;11.50;;;3.10;;
74059;SDS011;62414;53.436;8.828;2023-02-28T00:37:34;8.45;;;2.95;;
74059;SDS011;62414;53.436;8.828;2023-02-28T00:40:00;6.60;;;2.72;;
74059;SDS011;62414;53.436;8.828;2023-02-28T00:42:26;8.87;;;3.10;;
74059;SDS011;62414;53.436;8.828;2023-02-28T00:44:52;9.32;;;2.95;;
74059;SDS011;62414;53.436;8.828;2023-02-28T00:47:17;9.40;;;2.93;;
74059;SDS011;62414;53.436;8.828;2023-02-28T00:49:43;8.47;;;3.20;;
74059;SDS011;62414;53.436;8.828;2023-02-28T00:52:10;10.98;;;3.10;;
74059;SDS011;62414;53.436;8.828;2023-02-28T00:54:35;8.33;;;3.00;;
74059;SDS011;62414;53.436;8.828;2023-02-28T00:57:01;8.90;;;3.05;;
74059;SDS011;62414;53.436;8.828;2023-02-28T00:59:26;9.83;;;3.20;;
74059;SDS011;62414;53.436;8.828;2023-02-28T01:01:52;8.50;;;3.00;;
74059;SDS011;62414;53.436;8.828;2023-02-28T01:04:17;8.02;;;3.20;;
74059;SDS011;62414;53.436;8.828;2023-02-28T01:06:42;8.10;;;3.60;;
74059;SDS011;62414;53.436;8.828;2023-02-28T01:09:10;9.52;;;2.90;;
74059;SDS011;62414;53.436;8.828;2023-02-28T01:11:36;7.95;;;3.05;;
74059;SDS011;62414;53.436;8.828;2023-02-28T01:14:02;7.47;;;2.93;;
74059;SDS011;62414;53.436;8.828;2023-02-28T01:16:27;8.68;;;3.10;;
74059;SDS011;62414;53.436;8.828;2023-02-28T01:18:53;7.53;;;2.80;;
74059;SDS011;62414;53.436;8.828;2023-02-28T01:21:19;11.37;;;3.30;;
74059;SDS011;62414;53.436;8.828;2023-02-28T01:23:48;8.90;;;2.70;;
74059;SDS011;62414;53.436;8.828;2023-02-28T01:26:16;8.57;;;2.95;;
74059;SDS011;62414;53.436;8.828;2023-02-28T01:28:43;7.88;;;2.80;;
74059;SDS011;62414;53.436;8.828;2023-02-28T01:31:09;8.87;;;3.17;;
74059;SDS011;62414;53.436;8.828;2023-02-28T01:33:36;9.68;;;3.08;;
74059;SDS011;62414;53.436;8.828;2023-02-28T01:36:03;9.93;;;3.13;;
74059;SDS011;62414;53.436;8.828;2023-02-28T01:38:31;8.65;;;3.05;;
74059;SDS011;62414;53.436;8.828;2023-02-28T01:40:57;9.17;;;3.23;;
74059;SDS011;62414;53.436;8.828;2023-02-28T01:43:25;7.53;;;3.10;;
74059;SDS011;62414;53.436;8.828;2023-02-28T01:45:54;9.37;;;3.63;;
74059;SDS011;62414;53.436;8.828;2023-02-28T01:48:21;9.05;;;3.10;;
74059;SDS011;62414;53.436;8.828;2023-02-28T01:50:49;9.60;;;3.83;;
74059;SDS011;62414;53.436;8.828;2023-02-28T01:53:15;10.90;;;3.70;;
74059;SDS011;62414;53.436;8.828;2023-02-28T01:55:45;9.80;;;3.80;;
74059;SDS011;62414;53.436;8.828;2023-02-28T01:58:12;9.63;;;3.92;;
74059;SDS011;62414;53.436;8.828;2023-02-28T02:00:39;8.23;;;3.63;;
74059;SDS011;62414;53.436;8.828;2023-02-28T02:03:05;9.80;;;3.73;;
74059;SDS011;62414;53.436;8.828;2023-02-28T02:05:34;14.15;;;3.95;;
74059;SDS011;62414;53.436;8.828;2023-02-28T02:08:02;11.15;;;4.13;;
74059;SDS011;62414;53.436;8.828;2023-02-28T02:10:31;9.88;;;3.80;;
74059;SDS011;62414;53.436;8.828;2023-02-28T02:13:05;9.80;;;3.72;;
74059;SDS011;62414;53.436;8.828;2023-02-28T02:15:40;10.80;;;4.03;;
74059;SDS011;62414;53.436;8.828;2023-02-28T02:18:09;9.25;;;3.85;;
74059;SDS011;62414;53.436;8.828;2023-02-28T02:20:46;11.85;;;4.05;;
74059;SDS011;62414;53.436;8.828;2023-02-28T02:23:40;12.43;;;4.30;;
74059;SDS011;62414;53.436;8.828;2023-02-28T02:26:44;10.00;;;4.05;;
74059;SDS011;62414;53.436;8.828;2023-02-28T02:35:12;10.80;;;4.03;;
74059;SDS011;62414;53.436;8.828;2023-02-28T02:37:39;10.40;;;4.85;;
74059;SDS011;62414;53.436;8.828;2023-02-28T02:40:10;11.95;;;4.22;;
74059;SDS011;62414;53.436;8.828;2023-02-28T02:42:39;10.60;;;4.20;;
74059;SDS011;62414;53.436;8.828;2023-02-28T02:45:09;10.38;;;4.07;;
74059;SDS011;62414;53.436;8.828;2023-02-28T02:47:37;12.13;;;4.57;;
74059;SDS011;62414;53.436;8.828;2023-02-28T02:50:04;10.93;;;4.35;;
74059;SDS011;62414;53.436;8.828;2023-02-28T02:52:34;11.18;;;4.30;;
74059;SDS011;62414;53.436;8.828;2023-02-28T02:55:04;10.83;;;4.50;;
74059;SDS011;62414;53.436;8.828;2023-02-28T02:57:33;9.95;;;4.30;;
74059;SDS011;62414;53.436;8.828;2023-02-28T02:59:59;10.98;;;4.90;;
74059;SDS011;62414;53.436;8.828;2023-02-28T03:02:28;12.13;;;4.57;;
74059;SDS011;62414;53.436;8.828;2023-02-28T03:04:56;9.35;;;4.68;;
74059;SDS011;62414;53.436;8.828;2023-02-28T03:07:25;12.80;;;4.53;;
74059;SDS011;62414;53.436;8.828;2023-02-28T03:09:52;10.13;;;4.80;;
74059;SDS011;62414;53.436;8.828;2023-02-28T03:12:19;11.25;;;4.45;;
74059;SDS011;62414;53.436;8.828;2023-02-28T03:14:50;11.57;;;4.97;;
74059;SDS011;62414;53.436;8.828;2023-02-28T03:17:24;8.95;;;4.82;;
74059;SDS011;62414;53.436;8.828;2023-02-28T03:19:59;10.10;;;4.90;;
74059;SDS011;62414;53.436;8.828;2023-02-28T03:22:40;11.52;;;4.78;;
74059;SDS011;62414;53.436;8.828;2023-02-28T03:25:14;11.77;;;4.57;;
74059;SDS011;62414;53.436;8.828;2023-02-28T03:27:46;11.90;;;4.85;;
74059;SDS011;62414;53.436;8.828;2023-02-28T03:30:16;12.20;;;4.50;;
74059;SDS011;62414;53.436;8.828;2023-02-28T03:32:46;9.87;;;4.67;;
74059;SDS011;62414;53.436;8.828;2023-02-28T03:35:17;11.18;;;4.60;;
74059;SDS011;62414;53.436;8.828;2023-02-28T03:37:45;12.05;;;4.53;;
74059;SDS011;62414;53.436;8.828;2023-02-28T03:40:13;10.30;;;4.25;;
74059;SDS011;62414;53.436;8.828;2023-02-28T03:42:41;8.83;;;4.13;;
74059;SDS011;62414;53.436;8.828;2023-02-28T03:45:09;9.95;;;4.55;;
74059;SDS011;62414;53.436;8.828;2023-02-28T03:47:38;12.73;;;5.07;;
74059;SDS011;62414;53.436;8.828;2023-02-28T03:50:05;10.75;;;4.68;;
74059;SDS011;62414;53.436;8.828;2023-02-28T03:52:34;12.07;;;5.60;;
74059;SDS011;62414;53.436;8.828;2023-02-28T03:55:02;13.43;;;6.00;;
74059;SDS011;62414;53.436;8.828;2023-02-28T03:57:33;17.40;;;6.15;;
74059;SDS011;62414;53.436;8.828;2023-02-28T04:00:04;12.68;;;5.97;;
74059;SDS011;62414;53.436;8.828;2023-02-28T04:02:37;13.77;;;6.07;;
74059;SDS011;62414;53.436;8.828;2023-02-28T04:05:03;12.20;;;5.67;;
74059;SDS011;62414;53.436;8.828;2023-02-28T04:07:29;15.75;;;7.05;;
74059;SDS011;62414;53.436;8.828;2023-02-28T04:09:55;19.83;;;9.15;;
74059;SDS011;62414;53.436;8.828;2023-02-28T04:12:20;50.40;;;19.47;;
74059;SDS011;62414;53.436;8.828;2023-02-28T04:14:47;18.30;;;8.17;;
74059;SDS011;62414;53.436;8.828;2023-02-28T04:17:12;19.10;;;8.05;;
74059;SDS011;62414;53.436;8.828;2023-02-28T04:19:38;39.23;;;16.23;;
74059;SDS011;62414;53.436;8.828;2023-02-28T04:22:03;39.27;;;15.70;;
74059;SDS011;62414;53.436;8.828;2023-02-28T04:24:29;20.13;;;7.10;;
74059;SDS011;62414;53.436;8.828;2023-02-28T04:26:55;11.97;;;4.90;;
74059;SDS011;62414;53.436;8.828;2023-02-28T04:29:23;10.65;;;4.72;;
74059;SDS011;62414;53.436;8.828;2023-02-28T04:31:51;12.82;;;5.05;;
74059;SDS011;62414;53.436;8.828;2023-02-28T04:34:16;13.65;;;5.63;;
74059;SDS011;62414;53.436;8.828;2023-02-28T04:36:42;15.57;;;6.70;;
74059;SDS011;62414;53.436;8.828;2023-02-28T04:39:07;12.53;;;5.93;;
74059;SDS011;62414;53.436;8.828;2023-02-28T04:41:32;13.52;;;6.85;;
74059;SDS011;62414;53.436;8.828;2023-02-28T04:43:58;14.53;;;8.07;;
74059;SDS011;62414;53.436;8.828;2023-02-28T04:46:23;11.70;;;6.17;;
74059;SDS011;62414;53.436;8.828;2023-02-28T04:48:50;10.98;;;5.35;;
74059;SDS011;62414;53.436;8.828;2023-02-28T04:51:16;13.75;;;5.45;;
74059;SDS011;62414;53.436;8.828;2023-02-28T04:53:43;10.47;;;4.63;;
74059;SDS011;62414;53.436;8.828;2023-02-28T04:56:10;12.57;;;5.03;;
74059;SDS011;62414;53.436;8.828;2023-02-28T04:58:37;10.90;;;4.50;;
74059;SDS011;62414;53.436;8.828;2023-02-28T05:01:02;10.23;;;4.45;;
74059;SDS011;62414;53.436;8.828;2023-02-28T05:03:29;9.98;;;4.63;;
74059;SDS011;62414;53.436;8.828;2023-02-28T05:05:56;10.03;;;4.77;;
74059;SDS011;62414;53.436;8.828;2023-02-28T05:08:21;11.40;;;4.47;;
74059;SDS011;62414;53.436;8.828;2023-02-28T05:10:47;10.70;;;4.67;;
74059;SDS011;62414;53.436;8.828;2023-02-28T05:13:12;10.57;;;4.60;;
74059;SDS011;62414;53.436;8.828;2023-02-28T05:15:38;12.27;;;4.30;;
74059;SDS011;62414;53.436;8.828;2023-02-28T05:18:03;10.83;;;4.90;;
74059;SDS011;62414;53.436;8.828;2023-02-28T05:20:29;11.88;;;5.10;;
74059;SDS011;62414;53.436;8.828;2023-02-28T05:22:55;11.40;;;4.67;;
74059;SDS011;62414;53.436;8.828;2023-02-28T05:25:22;10.77;;;4.45;;
74059;SDS011;62414;53.436;8.828;2023-02-28T05:27:47;12.13;;;5.50;;
74059;SDS011;62414;53.436;8.828;2023-02-28T05:30:13;14.47;;;4.83;;
74059;SDS011;62414;53.436;8.828;2023-02-28T05:32:39;14.20;;;5.45;;
74059;SDS011;62414;53.436;8.828;2023-02-28T05:35:05;11.55;;;5.07;;
74059;SDS011;62414;53.436;8.828;2023-02-28T05:37:31;11.80;;;5.40;;
74059;SDS011;62414;53.436;8.828;2023-02-28T05:39:57;12.65;;;5.30;;
74059;SDS011;62414;53.436;8.828;2023-02-28T05:42:23;10.85;;;5.28;;
74059;SDS011;62414;53.436;8.828;2023-02-28T05:44:48;12.50;;;5.23;;
74059;SDS011;62414;53.436;8.828;2023-02-28T05:47:14;13.53;;;5.70;;
74059;SDS011;62414;53.436;8.828;2023-02-28T05:49:39;11.10;;;5.30;;
74059;SDS011;62414;53.436;8.828;2023-02-28T05:52:05;13.63;;;5.73;;
74059;SDS011;62414;53.436;8.828;2023-02-28T05:54:30;11.90;;;5.63;;
74059;SDS011;62414;53.436;8.828;2023-02-28T05:56:57;13.95;;;6.05;;
74059;SDS011;62414;53.436;8.828;2023-02-28T05:59:22;12.13;;;5.80;;
74059;SDS011;62414;53.436;8.828;2023-02-28T06:01:48;13.93;;;5.85;;
74059;SDS011;62414;53.436;8.828;2023-02-28T06:04:14;11.07;;;5.40;;
74059;SDS011;62414;53.436;8.828;2023-02-28T06:06:40;13.30;;;5.30;;
74059;SDS011;62414;53.436;8.828;2023-02-28T06:09:05;12.13;;;5.53;;
74059;SDS011;62414;53.436;8.828;2023-02-28T06:11:31;13.57;;;5.88;;
74059;SDS011;62414;53.436;8.828;2023-02-28T06:13:59;16.13;;;8.00;;
74059;SDS011;62414;53.436;8.828;2023-02-28T06:16:25;40.05;;;17.13;;
74059;SDS011;62414;53.436;8.828;2023-02-28T06:18:51;21.73;;;10.93;;
74059;SDS011;62414;53.436;8.828;2023-02-28T06:21:16;18.80;;;9.70;;
74059;SDS011;62414;53.436;8.828;2023-02-28T06:23:42;17.38;;;7.75;;
74059;SDS011;62414;53.436;8.828;2023-02-28T06:26:07;12.50;;;6.40;;
74059;SDS011;62414;53.436;8.828;2023-02-28T06:28:32;16.20;;;7.63;;
74059;SDS011;62414;53.436;8.828;2023-02-28T06:30:59;15.03;;;7.17;;
74059;SDS011;62414;53.436;8.828;2023-02-28T06:33:25;16.50;;;7.10;;
74059;SDS011;62414;53.436;8.828;2023-02-28T06:35:50;15.43;;;7.18;;
74059;SDS011;62414;53.436;8.828;2023-02-28T06:38:16;16.23;;;6.67;;
74059;SDS011;62414;53.436;8.828;2023-02-28T06:40:41;15.55;;;7.57;;
74059;SDS011;62414;53.436;8.828;2023-02-28T06:43:07;15.60;;;7.10;;
74059;SDS011;62414;53.436;8.828;2023-02-28T06:45:32;14.07;;;6.90;;
74059;SDS011;62414;53.436;8.828;2023-02-28T06:47:59;14.65;;;7.30;;
74059;SDS011;62414;53.436;8.828;2023-02-28T06:50:25;16.60;;;7.97;;
74059;SDS011;62414;53.436;8.828;2023-02-28T06:52:50;17.75;;;8.05;;
74059;SDS011;62414;53.436;8.828;2023-02-28T06:55:16;17.33;;;9.10;;
74059;SDS011;62414;53.436;8.828;2023-02-28T06:57:41;15.38;;;7.82;;
74059;SDS011;62414;53.436;8.828;2023-02-28T07:00:07;17.20;;;7.40;;
74059;SDS011;62414;53.436;8.828;2023-02-28T07:02:34;15.48;;;7.05;;
74059;SDS011;62414;53.436;8.828;2023-02-28T07:05:01;18.13;;;9.20;;
74059;SDS011;62414;53.436;8.828;2023-02-28T07:07:27;14.52;;;7.65;;
74059;SDS011;62414;53.436;8.828;2023-02-28T07:09:53;14.30;;;6.30;;
74059;SDS011;62414;53.436;8.828;2023-02-28T07:12:18;13.83;;;6.07;;
74059;SDS011;62414;53.436;8.828;2023-02-28T07:14:43;14.97;;;6.60;;
74059;SDS011;62414;53.436;8.828;2023-02-28T07:17:09;13.73;;;6.87;;
74059;SDS011;62414;53.436;8.828;2023-02-28T07:19:35;15.45;;;7.32;;
74059;SDS011;62414;53.436;8.828;2023-02-28T07:22:01;16.10;;;8.30;;
74059;SDS011;62414;53.436;8.828;2023-02-28T07:24:27;28.45;;;17.00;;
74059;SDS011;62414;53.436;8.828;2023-02-28T07:26:52;13.97;;;6.90;;
74059;SDS011;62414;53.436;8.828;2023-02-28T07:29:18;14.20;;;6.57;;
74059;SDS011;62414;53.436;8.828;2023-02-28T07:31:43;12.40;;;5.47;;
74059;SDS011;62414;53.436;8.828;2023-02-28T07:34:09;28.30;;;15.03;;
74059;SDS011;62414;53.436;8.828;2023-02-28T07:36:34;15.77;;;5.80;;
74059;SDS011;62414;53.436;8.828;2023-02-28T07:39:01;11.20;;;4.97;;
74059;SDS011;62414;53.436;8.828;2023-02-28T07:41:26;11.02;;;5.53;;
74059;SDS011;62414;53.436;8.828;2023-02-28T07:43:52;9.27;;;5.03;;
74059;SDS011;62414;53.436;8.828;2023-02-28T07:46:18;11.73;;;4.82;;
74059;SDS011;62414;53.436;8.828;2023-02-28T07:48:44;10.63;;;5.30;;
74059;SDS011;62414;53.436;8.828;2023-02-28T07:51:09;12.25;;;4.45;;
74059;SDS011;62414;53.436;8.828;2023-02-28T07:53:35;11.17;;;4.57;;
74059;SDS011;62414;53.436;8.828;2023-02-28T07:56:02;10.00;;;4.63;;
74059;SDS011;62414;53.436;8.828;2023-02-28T07:58:28;10.52;;;4.70;;
74059;SDS011;62414;53.436;8.828;2023-02-28T08:00:54;9.40;;;4.75;;
74059;SDS011;62414;53.436;8.828;2023-02-28T08:03:20;11.97;;;4.60;;
74059;SDS011;62414;53.436;8.828;2023-02-28T08:05:47;10.95;;;4.22;;
74059;SDS011;62414;53.436;8.828;2023-02-28T08:08:12;11.48;;;4.43;;
74059;SDS011;62414;53.436;8.828;2023-02-28T08:10:38;12.43;;;4.47;;
74059;SDS011;62414;53.436;8.828;2023-02-28T08:13:05;10.23;;;4.90;;
74059;SDS011;62414;53.436;8.828;2023-02-28T08:15:30;9.52;;;3.85;;
74059;SDS011;62414;53.436;8.828;2023-02-28T08:17:56;10.67;;;4.07;;
74059;SDS011;62414;53.436;8.828;2023-02-28T08:20:21;12.48;;;5.32;;
74059;SDS011;62414;53.436;8.828;2023-02-28T08:22:47;7.57;;;3.72;;
74059;SDS011;62414;53.436;8.828;2023-02-28T08:25:13;7.30;;;3.70;;
74059;SDS011;62414;53.436;8.828;2023-02-28T08:27:38;7.90;;;3.60;;
74059;SDS011;62414;53.436;8.828;2023-02-28T08:30:06;10.25;;;4.13;;
74059;SDS011;62414;53.436;8.828;2023-02-28T08:32:32;8.60;;;3.60;;
74059;SDS011;62414;53.436;8.828;2023-02-28T08:34:58;11.98;;;4.40;;
74059;SDS011;62414;53.436;8.828;2023-02-28T08:37:23;12.03;;;4.00;;
74059;SDS011;62414;53.436;8.828;2023-02-28T08:39:49;12.75;;;5.00;;
74059;SDS011;62414;53.436;8.828;2023-02-28T08:42:14;10.70;;;3.50;;
74059;SDS011;62414;53.436;8.828;2023-02-28T08:44:40;8.73;;;3.30;;
74059;SDS011;62414;53.436;8.828;2023-02-28T08:47:06;6.57;;;2.65;;
74059;SDS011;62414;53.436;8.828;2023-02-28T08:49:32;5.80;;;2.57;;
74059;SDS011;62414;53.436;8.828;2023-02-28T08:51:57;5.20;;;2.33;;
74059;SDS011;62414;53.436;8.828;2023-02-28T08:54:23;4.80;;;2.20;;
74059;SDS011;62414;53.436;8.828;2023-02-28T08:56:48;8.03;;;2.50;;
74059;SDS011;62414;53.436;8.828;2023-02-28T08:59:14;5.75;;;2.20;;
74059;SDS011;62414;53.436;8.828;2023-02-28T09:01:39;6.27;;;2.30;;
74059;SDS011;62414;53.436;8.828;2023-02-28T09:04:06;6.23;;;2.27;;
74059;SDS011;62414;53.436;8.828;2023-02-28T09:06:32;6.97;;;1.83;;
74059;SDS011;62414;53.436;8.828;2023-02-28T09:08:58;7.05;;;2.17;;
74059;SDS011;62414;53.436;8.828;2023-02-28T09:11:23;7.30;;;2.07;;
74059;SDS011;62414;53.436;8.828;2023-02-28T09:13:49;6.30;;;2.13;;
74059;SDS011;62414;53.436;8.828;2023-02-28T09:16:15;10.13;;;2.10;;
74059;SDS011;62414;53.436;8.828;2023-02-28T09:18:41;5.28;;;1.75;;
74059;SDS011;62414;53.436;8.828;2023-02-28T09:21:09;5.37;;;1.60;;
74059;SDS011;62414;53.436;8.828;2023-02-28T09:23:36;5.18;;;1.42;;
74059;SDS011;62414;53.436;8.828;2023-02-28T09:26:01;6.57;;;2.00;;
74059;SDS011;62414;53.436;8.828;2023-02-28T09:28:27;5.97;;;1.80;;
74059;SDS011;62414;53.436;8.828;2023-02-28T09:30:53;4.27;;;1.10;;
74059;SDS011;62414;53.436;8.828;2023-02-28T09:33:19;5.90;;;1.42;;
74059;SDS011;62414;53.436;8.828;2023-02-28T09:35:45;5.88;;;1.60;;
74059;SDS011;62414;53.436;8.828;2023-02-28T09:38:12;5.10;;;1.37;;
74059;SDS011;62414;53.436;8.828;2023-02-28T09:40:41;5.85;;;1.40;;
74059;SDS011;62414;53.436;8.828;2023-02-28T09:43:12;4.28;;;1.55;;
74059;SDS011;62414;53.436;8.828;2023-02-28T09:45:40;5.93;;;2.22;;
74059;SDS011;62414;53.436;8.828;2023-02-28T09:48:16;6.83;;;2.80;;
74059;SDS011;62414;53.436;8.828;2023-02-28T09:50:45;6.40;;;1.80;;
74059;SDS011;62414;53.436;8.828;2023-02-28T09:53:15;9.23;;;2.70;;
74059;SDS011;62414;53.436;8.828;2023-02-28T09:55:45;5.78;;;1.50;;
74059;SDS011;62414;53.436;8.828;2023-02-28T09:58:15;5.93;;;1.50;;
74059;SDS011;62414;53.436;8.828;2023-02-28T10:00:44;4.43;;;1.30;;
74059;SDS011;62414;53.436;8.828;2023-02-28T10:03:25;4.78;;;1.50;;
74059;SDS011;62414;53.436;8.828;2023-02-28T10:05:56;5.35;;;1.70;;
74059;SDS011;62414;53.436;8.828;2023-02-28T10:08:26;5.80;;;1.70;;
74059;SDS011;62414;53.436;8.828;2023-02-28T10:10:54;4.68;;;1.40;;
74059;SDS011;62414;53.436;8.828;2023-02-28T10:13:22;5.27;;;1.40;;
74059;SDS011;62414;53.436;8.828;2023-02-28T10:15:51;5.28;;;1.50;;
74059;SDS011;62414;53.436;8.828;2023-02-28T10:18:20;6.47;;;1.40;;
74059;SDS011;62414;53.436;8.828;2023-02-28T10:20:48;6.30;;;1.70;;
74059;SDS011;62414;53.436;8.828;2023-02-28T10:23:15;5.30;;;1.50;;
74059;SDS011;62414;53.436;8.828;2023-02-28T10:25:47;7.07;;;2.13;;
74059;SDS011;62414;53.436;8.828;2023-02-28T10:28:17;4.90;;;1.48;;
74059;SDS011;62414;53.436;8.828;2023-02-28T10:30:43;3.97;;;1.25;;
74059;SDS011;62414;53.436;8.828;2023-02-28T10:33:17;5.30;;;1.40;;
74059;SDS011;62414;53.436;8.828;2023-02-28T10:35:44;4.65;;;1.27;;
74059;SDS011;62414;53.436;8.828;2023-02-28T10:38:12;3.43;;;1.40;;
74059;SDS011;62414;53.436;8.828;2023-02-28T10:40:41;4.87;;;1.20;;
74059;SDS011;62414;53.436;8.828;2023-02-28T10:43:18;3.95;;;1.30;;
74059;SDS011;62414;53.436;8.828;2023-02-28T10:45:55;4.10;;;1.30;;
74059;SDS011;62414;53.436;8.828;2023-02-28T10:48:29;5.00;;;1.20;;
74059;SDS011;62414;53.436;8.828;2023-02-28T10:50:56;5.68;;;1.48;;
74059;SDS011;62414;53.436;8.828;2023-02-28T10:53:28;4.40;;;1.50;;
74059;SDS011;62414;53.436;8.828;2023-02-28T10:55:56;6.43;;;1.50;;
74059;SDS011;62414;53.436;8.828;2023-02-28T10:58:25;4.40;;;1.30;;
74059;SDS011;62414;53.436;8.828;2023-02-28T11:00:52;4.65;;;1.40;;
74059;SDS011;62414;53.436;8.828;2023-02-28T11:03:23;4.90;;;1.50;;
74059;SDS011;62414;53.436;8.828;2023-02-28T11:05:50;4.60;;;1.55;;
74059;SDS011;62414;53.436;8.828;2023-02-28T11:08:16;4.47;;;1.40;;
74059;SDS011;62414;53.436;8.828;2023-02-28T11:10:44;3.83;;;1.33;;
74059;SDS011;62414;53.436;8.828;2023-02-28T11:13:13;9.20;;;3.22;;
74059;SDS011;62414;53.436;8.828;2023-02-28T11:15:46;7.95;;;2.75;;
74059;SDS011;62414;53.436;8.828;2023-02-28T11:18:20;4.13;;;1.30;;
74059;SDS011;62414;53.436;8.828;2023-02-28T11:20:48;8.97;;;3.40;;
74059;SDS011;62414;53.436;8.828;2023-02-28T11:23:14;6.70;;;2.30;;
74059;SDS011;62414;53.436;8.828;2023-02-28T11:25:41;4.65;;;1.33;;
74059;SDS011;62414;53.436;8.828;2023-02-28T11:28:23;5.70;;;1.02;;
74059;SDS011;62414;53.436;8.828;2023-02-28T11:30:59;4.35;;;1.20;;
74059;SDS011;62414;53.436;8.828;2023-02-28T11:33:27;4.00;;;0.90;;
74059;SDS011;62414;53.436;8.828;2023-02-28T11:35:53;4.53;;;1.17;;
74059;SDS011;62414;53.436;8.828;2023-02-28T11:38:22;3.45;;;1.00;;
74059;SDS011;62414;53.436;8.828;2023-02-28T11:40:48;3.77;;;1.00;;
74059;SDS011;62414;53.436;8.828;2023-02-28T11:43:25;7.85;;;2.42;;
74059;SDS011;62414;53.436;8.828;2023-02-28T11:46:00;3.67;;;0.90;;
74059;SDS011;62414;53.436;8.828;2023-02-28T11:48:33;3.53;;;1.10;;
74059;SDS011;62414;53.436;8.828;2023-02-28T11:51:10;3.63;;;1.10;;
74059;SDS011;62414;53.436;8.828;2023-02-28T11:53:51;3.53;;;0.93;;
74059;SDS011;62414;53.436;8.828;2023-02-28T11:56:25;3.17;;;1.10;;
74059;SDS011;62414;53.436;8.828;2023-02-28T11:59:00;4.78;;;1.55;;
74059;SDS011;62414;53.436;8.828;2023-02-28T12:01:35;4.22;;;1.23;;
74059;SDS011;62414;53.436;8.828;2023-02-28T12:04:17;4.93;;;2.78;;
74059;SDS011;62414;53.436;8.828;2023-02-28T12:06:50;4.67;;;1.17;;
74059;SDS011;62414;53.436;8.828;2023-02-28T12:09:32;3.40;;;1.10;;
74059;SDS011;62414;53.436;8.828;2023-02-28T12:12:10;4.15;;;1.55;;
74059;SDS011;62414;53.436;8.828;2023-02-28T12:14:47;5.15;;;1.38;;
74059;SDS011;62414;53.436;8.828;2023-02-28T12:17:41;3.50;;;1.50;;
74059;SDS011;62414;53.436;8.828;2023-02-28T12:20:14;3.63;;;1.37;;
74059;SDS011;62414;53.436;8.828;2023-02-28T12:22:43;4.82;;;1.50;;
74059;SDS011;62414;53.436;8.828;2023-02-28T12:25:29;4.78;;;1.20;;
74059;SDS011;62414;53.436;8.828;2023-02-28T12:28:03;3.75;;;1.50;;
74059;SDS011;62414;53.436;8.828;2023-02-28T12:30:30;3.97;;;1.30;;
74059;SDS011;62414;53.436;8.828;2023-02-28T12:33:02;4.32;;;1.30;;
74059;SDS011;62414;53.436;8.828;2023-02-28T12:35:32;7.72;;;3.38;;
74059;SDS011;62414;53.436;8.828;2023-02-28T12:38:02;5.03;;;1.60;;
74059;SDS011;62414;53.436;8.828;2023-02-28T12:40:32;6.57;;;1.47;;
74059;SDS011;62414;53.436;8.828;2023-02-28T12:43:06;5.05;;;2.40;;
74059;SDS011;62414;53.436;8.828;2023-02-28T12:45:37;4.90;;;1.48;;
74059;SDS011;62414;53.436;8.828;2023-02-28T12:48:07;5.30;;;3.33;;
74059;SDS011;62414;53.436;8.828;2023-02-28T12:50:35;4.80;;;2.15;;
74059;SDS011;62414;53.436;8.828;2023-02-28T12:53:01;4.03;;;1.40;;
74059;SDS011;62414;53.436;8.828;2023-02-28T12:55:30;4.35;;;1.40;;
74059;SDS011;62414;53.436;8.828;2023-02-28T12:58:01;3.58;;;1.50;;
74059;SDS011;62414;53.436;8.828;2023-02-28T13:00:33;4.07;;;1.50;;
74059;SDS011;62414;53.436;8.828;2023-02-28T13:03:06;4.20;;;1.60;;
74059;SDS011;62414;53.436;8.828;2023-02-28T13:08:39;4.38;;;2.22;;
74059;SDS011;62414;53.436;8.828;2023-02-28T13:11:29;3.72;;;1.30;;
74059;SDS011;62414;53.436;8.828;2023-02-28T13:13:57;4.45;;;1.58;;
74059;SDS011;62414;53.436;8.828;2023-02-28T13:16:23;4.87;;;1.50;;
74059;SDS011;62414;53.436;8.828;2023-02-28T13:18:50;5.82;;;1.30;;
74059;SDS011;62414;53.436;8.828;2023-02-28T13:21:22;4.43;;;1.55;;
74059;SDS011;62414;53.436;8.828;2023-02-28T13:23:59;3.60;;;1.40;;
74059;SDS011;62414;53.436;8.828;2023-02-28T13:29:35;3.55;;;1.40;;
74059;SDS011;62414;53.436;8.828;2023-02-28T13:44:00;3.92;;;1.50;;
74059;SDS011;62414;53.436;8.828;2023-02-28T13:46:28;2.83;;;1.40;;
74059;SDS011;62414;53.436;8.828;2023-02-28T13:48:53;3.63;;;1.60;;
74059;SDS011;62414;53.436;8.828;2023-02-28T13:51:35;3.90;;;1.30;;
74059;SDS011;62414;53.436;8.828;2023-02-28T13:54:04;3.83;;;1.33;;
74059;SDS011;62414;53.436;8.828;2023-02-28T13:56:39;3.35;;;1.50;;
74059;SDS011;62414;53.436;8.828;2023-02-28T13:59:14;5.18;;;1.52;;
74059;SDS011;62414;53.436;8.828;2023-02-28T14:01:48;4.05;;;1.60;;
74059;SDS011;62414;53.436;8.828;2023-02-28T14:04:29;3.77;;;1.40;;
74059;SDS011;62414;53.436;8.828;2023-02-28T14:07:16;3.80;;;1.50;;
74059;SDS011;62414;53.436;8.828;2023-02-28T14:09:45;4.05;;;1.70;;
74059;SDS011;62414;53.436;8.828;2023-02-28T14:15:27;3.38;;;1.50;;
74059;SDS011;62414;53.436;8.828;2023-02-28T14:18:14;3.57;;;1.40;;
74059;SDS011;62414;53.436;8.828;2023-02-28T14:20:43;3.67;;;1.40;;
74059;SDS011;62414;53.436;8.828;2023-02-28T14:23:12;3.50;;;1.60;;
74059;SDS011;62414;53.436;8.828;2023-02-28T14:25:45;3.67;;;1.50;;
74059;SDS011;62414;53.436;8.828;2023-02-28T14:28:14;3.80;;;1.50;;
74059;SDS011;62414;53.436;8.828;2023-02-28T14:31:01;4.63;;;1.80;;
74059;SDS011;62414;53.436;8.828;2023-02-28T14:33:33;4.05;;;1.50;;
74059;SDS011;62414;53.436;8.828;2023-02-28T14:36:09;3.47;;;1.80;;
74059;SDS011;62414;53.436;8.828;2023-02-28T14:38:41;7.32;;;3.30;;
74059;SDS011;62414;53.436;8.828;2023-02-28T14:41:12;4.32;;;2.00;;
74059;SDS011;62414;53.436;8.828;2023-02-28T14:43:47;10.37;;;4.60;;
74059;SDS011;62414;53.436;8.828;2023-02-28T14:46:14;5.03;;;2.00;;
74059;SDS011;62414;53.436;8.828;2023-02-28T14:48:39;10.15;;;4.15;;
74059;SDS011;62414;53.436;8.828;2023-02-28T14:51:05;3.93;;;1.70;;
74059;SDS011;62414;53.436;8.828;2023-02-28T14:53:34;5.80;;;2.77;;
74059;SDS011;62414;53.436;8.828;2023-02-28T14:56:02;3.88;;;1.60;;
74059;SDS011;62414;53.436;8.828;2023-02-28T14:58:29;4.93;;;2.50;;
74059;SDS011;62414;53.436;8.828;2023-02-28T15:00:56;3.67;;;1.63;;
74059;SDS011;62414;53.436;8.828;2023-02-28T15:03:23;4.70;;;1.67;;
74059;SDS011;62414;53.436;8.828;2023-02-28T15:05:53;3.42;;;1.70;;
74059;SDS011;62414;53.436;8.828;2023-02-28T15:08:19;5.20;;;1.77;;
74059;SDS011;62414;53.436;8.828;2023-02-28T15:10:49;4.13;;;1.80;;
74059;SDS011;62414;53.436;8.828;2023-02-28T15:13:18;4.28;;;1.70;;
74059;SDS011;62414;53.436;8.828;2023-02-28T15:15:45;3.35;;;1.50;;